Gresham, Oregon
Current Conditions -  °F | °C
As of 12:53 AM on Friday 24 Oct 2014 (Local Time) from KTTD Reporting Station
Few Clouds Few Clouds  
Wind Chill: 51°   Ceiling: Unl
Heat Index: 51°   Visibility: 10mi
Dew Point: 48°   Wind: 5mph
Humidity: 89%   Direction: 90°E
Pressure: 30.02"   Gusts: NA
Location:  45.51°N, 122.43°W
Report Text: KTTD 240753Z AUTO 09004KT 10SM FEW095 11/09 A3002 RMK AO2 SLP165 T01060089 401610106 TSNO
Loading
Personal Weather Stations






























Interactive Weather Map New forecast layout! Learn more

10-Day Weather Forecast

Advertisements
Track Severe Weather on mobile